sensor_id;sensor_type;location;lat;lon;timestamp;temperature;humidity
38784;DHT22;24531;45.502;12.238;2023-06-05T00:01:35;19.50;98.20
38784;DHT22;24531;45.502;12.238;2023-06-05T00:04:01;19.40;99.40
38784;DHT22;24531;45.502;12.238;2023-06-05T00:06:26;19.30;99.90
38784;DHT22;24531;45.502;12.238;2023-06-05T00:08:52;19.30;99.90
38784;DHT22;24531;45.502;12.238;2023-06-05T00:11:17;19.40;99.90
38784;DHT22;24531;45.502;12.238;2023-06-05T00:13:43;19.60;99.90
38784;DHT22;24531;45.502;12.238;2023-06-05T00:16:09;19.80;99.90
38784;DHT22;24531;45.502;12.238;2023-06-05T00:18:34;20.00;99.90
38784;DHT22;24531;45.502;12.238;2023-06-05T00:21:00;20.10;99.90
38784;DHT22;24531;45.502;12.238;2023-06-05T00:23:26;20.10;99.90
38784;DHT22;24531;45.502;12.238;2023-06-05T00:25:51;20.10;99.90
38784;DHT22;24531;45.502;12.238;2023-06-05T00:28:17;20.10;99.90
38784;DHT22;24531;45.502;12.238;2023-06-05T00:30:43;20.20;99.90
38784;DHT22;24531;45.502;12.238;2023-06-05T00:33:08;20.30;99.90
38784;DHT22;24531;45.502;12.238;2023-06-05T00:35:34;20.40;99.90
38784;DHT22;24531;45.502;12.238;2023-06-05T00:38:00;20.30;99.90
38784;DHT22;24531;45.502;12.238;2023-06-05T00:40:25;20.30;99.90
38784;DHT22;24531;45.502;12.238;2023-06-05T00:42:51;20.30;99.90
38784;DHT22;24531;45.502;12.238;2023-06-05T00:45:16;20.30;99.90
38784;DHT22;24531;45.502;12.238;2023-06-05T00:47:42;20.40;99.90
38784;DHT22;24531;45.502;12.238;2023-06-05T00:50:08;20.50;99.90
38784;DHT22;24531;45.502;12.238;2023-06-05T00:52:37;20.50;99.90
38784;DHT22;24531;45.502;12.238;2023-06-05T00:55:03;20.60;99.90
38784;DHT22;24531;45.502;12.238;2023-06-05T00:57:29;20.70;99.90
38784;DHT22;24531;45.502;12.238;2023-06-05T00:59:55;20.60;99.90
38784;DHT22;24531;45.502;12.238;2023-06-05T01:02:21;20.60;99.90
38784;DHT22;24531;45.502;12.238;2023-06-05T01:04:46;20.60;99.90
38784;DHT22;24531;45.502;12.238;2023-06-05T01:07:15;20.70;99.90
38784;DHT22;24531;45.502;12.238;2023-06-05T01:09:42;20.80;99.90
38784;DHT22;24531;45.502;12.238;2023-06-05T01:12:17;20.80;99.90
38784;DHT22;24531;45.502;12.238;2023-06-05T01:14:48;20.80;99.90
38784;DHT22;24531;45.502;12.238;2023-06-05T01:17:16;20.80;99.90
38784;DHT22;24531;45.502;12.238;2023-06-05T01:19:44;20.90;99.90
38784;DHT22;24531;45.502;12.238;2023-06-05T01:22:11;20.90;99.90
38784;DHT22;24531;45.502;12.238;2023-06-05T01:24:38;20.90;99.90
38784;DHT22;24531;45.502;12.238;2023-06-05T01:27:16;20.90;99.90
38784;DHT22;24531;45.502;12.238;2023-06-05T01:33:11;21.00;99.90
38784;DHT22;24531;45.502;12.238;2023-06-05T01:35:30;21.00;99.90
38784;DHT22;24531;45.502;12.238;2023-06-05T01:38:01;21.00;99.90
38784;DHT22;24531;45.502;12.238;2023-06-05T01:40:32;20.90;99.90
38784;DHT22;24531;45.502;12.238;2023-06-05T01:42:59;20.80;99.90
38784;DHT22;24531;45.502;12.238;2023-06-05T01:45:26;20.80;99.90
38784;DHT22;24531;45.502;12.238;2023-06-05T01:47:52;20.70;99.90
38784;DHT22;24531;45.502;12.238;2023-06-05T01:50:19;20.80;99.90
38784;DHT22;24531;45.502;12.238;2023-06-05T01:52:45;20.80;99.90
38784;DHT22;24531;45.502;12.238;2023-06-05T01:55:22;20.70;99.90
38784;DHT22;24531;45.502;12.238;2023-06-05T01:57:52;20.70;99.90
38784;DHT22;24531;45.502;12.238;2023-06-05T02:00:18;20.70;99.90
38784;DHT22;24531;45.502;12.238;2023-06-05T02:02:45;20.70;99.90
38784;DHT22;24531;45.502;12.238;2023-06-05T02:05:12;20.80;99.90
38784;DHT22;24531;45.502;12.238;2023-06-05T02:07:41;20.80;99.90
38784;DHT22;24531;45.502;12.238;2023-06-05T02:10:08;20.80;99.90
38784;DHT22;24531;45.502;12.238;2023-06-05T02:12:34;20.80;99.90
38784;DHT22;24531;45.502;12.238;2023-06-05T02:15:03;20.90;99.90
38784;DHT22;24531;45.502;12.238;2023-06-05T02:17:28;21.00;99.90
38784;DHT22;24531;45.502;12.238;2023-06-05T02:19:54;21.00;99.90
38784;DHT22;24531;45.502;12.238;2023-06-05T02:22:20;21.00;99.90
38784;DHT22;24531;45.502;12.238;2023-06-05T02:24:45;21.00;99.90
38784;DHT22;24531;45.502;12.238;2023-06-05T02:27:11;21.00;99.90
38784;DHT22;24531;45.502;12.238;2023-06-05T02:29:38;21.00;99.90
38784;DHT22;24531;45.502;12.238;2023-06-05T02:32:05;21.00;99.90
38784;DHT22;24531;45.502;12.238;2023-06-05T02:34:31;21.10;99.90
38784;DHT22;24531;45.502;12.238;2023-06-05T02:36:58;21.10;99.90
38784;DHT22;24531;45.502;12.238;2023-06-05T02:39:24;21.10;99.90
38784;DHT22;24531;45.502;12.238;2023-06-05T02:41:51;21.10;99.90
38784;DHT22;24531;45.502;12.238;2023-06-05T02:44:17;21.10;99.90
38784;DHT22;24531;45.502;12.238;2023-06-05T02:46:42;21.10;99.90
38784;DHT22;24531;45.502;12.238;2023-06-05T02:49:08;21.10;99.90
38784;DHT22;24531;45.502;12.238;2023-06-05T02:51:35;21.10;99.90
38784;DHT22;24531;45.502;12.238;2023-06-05T02:54:01;21.10;99.90
38784;DHT22;24531;45.502;12.238;2023-06-05T02:56:26;21.10;99.90
38784;DHT22;24531;45.502;12.238;2023-06-05T02:58:52;21.10;99.90
38784;DHT22;24531;45.502;12.238;2023-06-05T03:01:18;21.10;99.90
38784;DHT22;24531;45.502;12.238;2023-06-05T03:03:46;21.10;99.90
38784;DHT22;24531;45.502;12.238;2023-06-05T03:06:14;21.10;99.90
38784;DHT22;24531;45.502;12.238;2023-06-05T03:08:42;21.10;99.90
38784;DHT22;24531;45.502;12.238;2023-06-05T03:11:08;21.10;99.90
38784;DHT22;24531;45.502;12.238;2023-06-05T03:13:34;21.10;99.90
38784;DHT22;24531;45.502;12.238;2023-06-05T03:15:59;21.10;99.90
38784;DHT22;24531;45.502;12.238;2023-06-05T03:18:29;21.10;99.90
38784;DHT22;24531;45.502;12.238;2023-06-05T03:20:55;21.10;99.90
38784;DHT22;24531;45.502;12.238;2023-06-05T03:23:27;21.10;99.90
38784;DHT22;24531;45.502;12.238;2023-06-05T03:25:54;21.10;99.90
38784;DHT22;24531;45.502;12.238;2023-06-05T03:28:22;21.10;99.90
38784;DHT22;24531;45.502;12.238;2023-06-05T03:30:48;21.10;99.90
38784;DHT22;24531;45.502;12.238;2023-06-05T03:33:15;21.10;99.90
38784;DHT22;24531;45.502;12.238;2023-06-05T03:35:41;21.10;99.90
38784;DHT22;24531;45.502;12.238;2023-06-05T03:38:09;21.20;99.90
38784;DHT22;24531;45.502;12.238;2023-06-05T03:40:35;21.20;99.90
38784;DHT22;24531;45.502;12.238;2023-06-05T03:43:01;21.20;99.90
38784;DHT22;24531;45.502;12.238;2023-06-05T03:45:27;21.20;99.90
38784;DHT22;24531;45.502;12.238;2023-06-05T03:47:53;21.20;99.90
38784;DHT22;24531;45.502;12.238;2023-06-05T03:50:20;21.20;99.90
38784;DHT22;24531;45.502;12.238;2023-06-05T03:52:46;21.20;99.90
38784;DHT22;24531;45.502;12.238;2023-06-05T03:55:21;21.20;99.90
38784;DHT22;24531;45.502;12.238;2023-06-05T03:57:47;21.20;99.90
38784;DHT22;24531;45.502;12.238;2023-06-05T04:00:13;21.20;99.90
38784;DHT22;24531;45.502;12.238;2023-06-05T04:02:42;21.30;99.90
38784;DHT22;24531;45.502;12.238;2023-06-05T04:05:08;21.20;99.90
38784;DHT22;24531;45.502;12.238;2023-06-05T04:07:38;21.30;99.90
38784;DHT22;24531;45.502;12.238;2023-06-05T04:10:04;21.30;99.90
38784;DHT22;24531;45.502;12.238;2023-06-05T04:12:30;21.30;99.90
38784;DHT22;24531;45.502;12.238;2023-06-05T04:14:55;21.40;99.90
38784;DHT22;24531;45.502;12.238;2023-06-05T04:17:21;21.40;99.90
38784;DHT22;24531;45.502;12.238;2023-06-05T04:19:46;21.40;99.90
38784;DHT22;24531;45.502;12.238;2023-06-05T04:22:12;21.30;99.90
38784;DHT22;24531;45.502;12.238;2023-06-05T04:24:37;21.30;99.90
38784;DHT22;24531;45.502;12.238;2023-06-05T04:27:04;21.30;99.90
38784;DHT22;24531;45.502;12.238;2023-06-05T04:29:30;21.40;99.90
38784;DHT22;24531;45.502;12.238;2023-06-05T04:31:58;21.40;99.90
38784;DHT22;24531;45.502;12.238;2023-06-05T04:34:23;21.40;99.90
38784;DHT22;24531;45.502;12.238;2023-06-05T04:36:49;21.50;99.90
38784;DHT22;24531;45.502;12.238;2023-06-05T04:39:17;21.40;99.90
38784;DHT22;24531;45.502;12.238;2023-06-05T04:41:44;21.50;99.90
38784;DHT22;24531;45.502;12.238;2023-06-05T04:44:12;21.50;99.90
38784;DHT22;24531;45.502;12.238;2023-06-05T04:46:39;21.50;99.90
38784;DHT22;24531;45.502;12.238;2023-06-05T04:49:06;21.50;99.90
38784;DHT22;24531;45.502;12.238;2023-06-05T04:51:32;21.40;99.90
38784;DHT22;24531;45.502;12.238;2023-06-05T04:53:58;21.50;99.90
38784;DHT22;24531;45.502;12.238;2023-06-05T04:56:25;21.40;99.90
38784;DHT22;24531;45.502;12.238;2023-06-05T04:58:51;21.40;99.90
38784;DHT22;24531;45.502;12.238;2023-06-05T05:01:18;21.40;99.90
38784;DHT22;24531;45.502;12.238;2023-06-05T05:03:45;21.40;99.90
38784;DHT22;24531;45.502;12.238;2023-06-05T05:06:16;21.30;99.90
38784;DHT22;24531;45.502;12.238;2023-06-05T05:08:42;21.30;99.90
38784;DHT22;24531;45.502;12.238;2023-06-05T05:11:10;21.40;99.90
38784;DHT22;24531;45.502;12.238;2023-06-05T05:13:36;21.40;99.90
38784;DHT22;24531;45.502;12.238;2023-06-05T05:16:02;21.40;99.90
38784;DHT22;24531;45.502;12.238;2023-06-05T05:18:27;21.40;99.90
38784;DHT22;24531;45.502;12.238;2023-06-05T05:20:53;21.40;99.90
38784;DHT22;24531;45.502;12.238;2023-06-05T05:23:19;21.50;99.90
38784;DHT22;24531;45.502;12.238;2023-06-05T05:25:46;21.50;99.90
38784;DHT22;24531;45.502;12.238;2023-06-05T05:28:12;21.50;99.90
38784;DHT22;24531;45.502;12.238;2023-06-05T05:30:38;21.40;99.90
38784;DHT22;24531;45.502;12.238;2023-06-05T05:33:03;21.50;99.90
38784;DHT22;24531;45.502;12.238;2023-06-05T05:35:29;21.40;99.90
38784;DHT22;24531;45.502;12.238;2023-06-05T05:37:56;21.40;99.90
38784;DHT22;24531;45.502;12.238;2023-06-05T05:40:22;21.50;99.90
38784;DHT22;24531;45.502;12.238;2023-06-05T05:42:47;21.50;99.90
38784;DHT22;24531;45.502;12.238;2023-06-05T05:45:13;21.40;99.90
38784;DHT22;24531;45.502;12.238;2023-06-05T05:47:38;21.40;99.90
38784;DHT22;24531;45.502;12.238;2023-06-05T05:50:05;21.40;99.90
38784;DHT22;24531;45.502;12.238;2023-06-05T05:52:30;21.40;99.90
38784;DHT22;24531;45.502;12.238;2023-06-05T05:54:56;21.40;99.90
38784;DHT22;24531;45.502;12.238;2023-06-05T05:57:24;21.40;99.90
38784;DHT22;24531;45.502;12.238;2023-06-05T05:59:50;21.40;99.90
38784;DHT22;24531;45.502;12.238;2023-06-05T06:02:16;21.40;99.90
38784;DHT22;24531;45.502;12.238;2023-06-05T06:04:42;21.40;99.90
38784;DHT22;24531;45.502;12.238;2023-06-05T06:07:09;21.40;99.90
38784;DHT22;24531;45.502;12.238;2023-06-05T06:09:35;21.40;99.90
38784;DHT22;24531;45.502;12.238;2023-06-05T06:12:01;21.30;99.90
38784;DHT22;24531;45.502;12.238;2023-06-05T06:14:31;21.40;99.90
38784;DHT22;24531;45.502;12.238;2023-06-05T06:16:57;21.40;99.90
38784;DHT22;24531;45.502;12.238;2023-06-05T06:19:23;21.30;99.90
38784;DHT22;24531;45.502;12.238;2023-06-05T06:21:50;21.30;99.90
38784;DHT22;24531;45.502;12.238;2023-06-05T06:24:18;21.30;99.90
38784;DHT22;24531;45.502;12.238;2023-06-05T06:26:48;21.30;99.90
38784;DHT22;24531;45.502;12.238;2023-06-05T06:29:17;21.30;99.90
38784;DHT22;24531;45.502;12.238;2023-06-05T06:31:43;21.20;99.90
38784;DHT22;24531;45.502;12.238;2023-06-05T06:34:09;21.20;99.90
38784;DHT22;24531;45.502;12.238;2023-06-05T06:36:36;21.20;99.90
38784;DHT22;24531;45.502;12.238;2023-06-05T06:39:06;21.20;99.90
38784;DHT22;24531;45.502;12.238;2023-06-05T06:41:36;21.20;99.90
38784;DHT22;24531;45.502;12.238;2023-06-05T06:44:02;21.20;99.90
38784;DHT22;24531;45.502;12.238;2023-06-05T06:46:28;21.10;99.90
38784;DHT22;24531;45.502;12.238;2023-06-05T06:48:54;21.20;99.90
38784;DHT22;24531;45.502;12.238;2023-06-05T06:51:20;21.20;99.90
38784;DHT22;24531;45.502;12.238;2023-06-05T06:53:47;21.20;99.90
38784;DHT22;24531;45.502;12.238;2023-06-05T06:56:14;21.20;99.90
38784;DHT22;24531;45.502;12.238;2023-06-05T06:58:44;21.20;99.90
38784;DHT22;24531;45.502;12.238;2023-06-05T07:01:11;21.30;99.90
38784;DHT22;24531;45.502;12.238;2023-06-05T07:03:37;21.30;99.90
38784;DHT22;24531;45.502;12.238;2023-06-05T07:06:03;21.30;99.90
38784;DHT22;24531;45.502;12.238;2023-06-05T07:08:29;21.30;99.90
38784;DHT22;24531;45.502;12.238;2023-06-05T07:10:55;21.20;99.90
38784;DHT22;24531;45.502;12.238;2023-06-05T07:13:21;21.10;99.90
38784;DHT22;24531;45.502;12.238;2023-06-05T07:15:47;21.10;99.90
38784;DHT22;24531;45.502;12.238;2023-06-05T07:18:13;21.10;99.90
38784;DHT22;24531;45.502;12.238;2023-06-05T07:20:39;21.10;99.90
38784;DHT22;24531;45.502;12.238;2023-06-05T07:23:05;21.10;99.90
38784;DHT22;24531;45.502;12.238;2023-06-05T07:25:31;21.10;99.90
38784;DHT22;24531;45.502;12.238;2023-06-05T07:27:57;21.10;99.90
38784;DHT22;24531;45.502;12.238;2023-06-05T07:30:25;21.10;99.90
38784;DHT22;24531;45.502;12.238;2023-06-05T07:32:51;21.20;99.90
38784;DHT22;24531;45.502;12.238;2023-06-05T07:35:17;21.20;99.90
38784;DHT22;24531;45.502;12.238;2023-06-05T07:37:42;21.30;99.90
38784;DHT22;24531;45.502;12.238;2023-06-05T07:40:08;21.30;99.90
38784;DHT22;24531;45.502;12.238;2023-06-05T07:42:34;21.30;99.90
38784;DHT22;24531;45.502;12.238;2023-06-05T07:45:00;21.40;99.90
38784;DHT22;24531;45.502;12.238;2023-06-05T07:47:27;21.40;99.90
38784;DHT22;24531;45.502;12.238;2023-06-05T07:50:02;21.40;99.90
38784;DHT22;24531;45.502;12.238;2023-06-05T07:52:30;21.50;99.90
38784;DHT22;24531;45.502;12.238;2023-06-05T07:54:56;21.50;99.90
38784;DHT22;24531;45.502;12.238;2023-06-05T07:57:21;21.60;99.90
38784;DHT22;24531;45.502;12.238;2023-06-05T07:59:50;21.60;99.90
38784;DHT22;24531;45.502;12.238;2023-06-05T08:02:17;21.70;99.90
38784;DHT22;24531;45.502;12.238;2023-06-05T08:04:43;21.80;99.90
38784;DHT22;24531;45.502;12.238;2023-06-05T08:07:09;21.80;99.90
38784;DHT22;24531;45.502;12.238;2023-06-05T08:09:35;22.00;99.90
38784;DHT22;24531;45.502;12.238;2023-06-05T08:12:05;22.00;99.90
38784;DHT22;24531;45.502;12.238;2023-06-05T08:14:33;22.10;99.90
38784;DHT22;24531;45.502;12.238;2023-06-05T08:16:58;22.20;99.90
38784;DHT22;24531;45.502;12.238;2023-06-05T08:19:24;22.20;99.90
38784;DHT22;24531;45.502;12.238;2023-06-05T08:21:53;22.30;99.90
38784;DHT22;24531;45.502;12.238;2023-06-05T08:24:22;22.40;99.90
38784;DHT22;24531;45.502;12.238;2023-06-05T08:26:48;22.50;99.90
38784;DHT22;24531;45.502;12.238;2023-06-05T08:29:14;22.50;99.90
38784;DHT22;24531;45.502;12.238;2023-06-05T08:31:39;22.50;99.90
38784;DHT22;24531;45.502;12.238;2023-06-05T08:34:05;22.50;99.90
38784;DHT22;24531;45.502;12.238;2023-06-05T08:36:31;22.50;99.90
38784;DHT22;24531;45.502;12.238;2023-06-05T08:38:58;24.90;99.90
38784;DHT22;24531;45.502;12.238;2023-06-05T08:41:30;22.50;99.90
38784;DHT22;24531;45.502;12.238;2023-06-05T08:43:58;22.60;99.90
38784;DHT22;24531;45.502;12.238;2023-06-05T08:46:29;22.60;99.90
38784;DHT22;24531;45.502;12.238;2023-06-05T08:49:01;22.70;99.90
38784;DHT22;24531;45.502;12.238;2023-06-05T08:51:31;22.70;99.90
38784;DHT22;24531;45.502;12.238;2023-06-05T08:54:04;22.60;99.90
38784;DHT22;24531;45.502;12.238;2023-06-05T08:56:38;22.50;99.90
38784;DHT22;24531;45.502;12.238;2023-06-05T08:59:05;22.50;99.90
38784;DHT22;24531;45.502;12.238;2023-06-05T09:01:31;22.50;99.90
38784;DHT22;24531;45.502;12.238;2023-06-05T09:04:02;22.60;99.90
38784;DHT22;24531;45.502;12.238;2023-06-05T09:06:28;22.70;99.90
38784;DHT22;24531;45.502;12.238;2023-06-05T09:08:54;22.70;99.90
38784;DHT22;24531;45.502;12.238;2023-06-05T09:11:31;22.70;99.90
38784;DHT22;24531;45.502;12.238;2023-06-05T09:13:58;22.80;99.90
38784;DHT22;24531;45.502;12.238;2023-06-05T09:19:04;22.80;99.90
38784;DHT22;24531;45.502;12.238;2023-06-05T09:21:30;22.70;99.90
38784;DHT22;24531;45.502;12.238;2023-06-05T09:24:13;22.60;99.90
38784;DHT22;24531;45.502;12.238;2023-06-05T09:29:30;22.70;99.90
38784;DHT22;24531;45.502;12.238;2023-06-05T09:34:34;23.00;99.90
38784;DHT22;24531;45.502;12.238;2023-06-05T09:37:08;24.20;99.90
38784;DHT22;24531;45.502;12.238;2023-06-05T09:39:36;23.40;99.90
38784;DHT22;24531;45.502;12.238;2023-06-05T09:42:02;23.40;99.90
38784;DHT22;24531;45.502;12.238;2023-06-05T09:44:29;23.40;99.90
38784;DHT22;24531;45.502;12.238;2023-06-05T09:49:32;23.30;99.90
38784;DHT22;24531;45.502;12.238;2023-06-05T09:52:00;23.30;99.90
38784;DHT22;24531;45.502;12.238;2023-06-05T09:54:30;23.30;99.90
38784;DHT22;24531;45.502;12.238;2023-06-05T09:56:59;23.20;99.90
38784;DHT22;24531;45.502;12.238;2023-06-05T09:59:29;23.30;99.90
38784;DHT22;24531;45.502;12.238;2023-06-05T10:02:08;23.40;99.90
38784;DHT22;24531;45.502;12.238;2023-06-05T10:04:54;23.40;99.90
38784;DHT22;24531;45.502;12.238;2023-06-05T10:07:22;23.50;99.90
38784;DHT22;24531;45.502;12.238;2023-06-05T10:09:49;23.40;99.90
38784;DHT22;24531;45.502;12.238;2023-06-05T10:12:16;23.30;99.90
38784;DHT22;24531;45.502;12.238;2023-06-05T10:14:42;23.30;99.90
38784;DHT22;24531;45.502;12.238;2023-06-05T10:17:12;23.20;99.90
38784;DHT22;24531;45.502;12.238;2023-06-05T10:19:42;23.10;99.90
38784;DHT22;24531;45.502;12.238;2023-06-05T10:22:10;22.90;99.90
38784;DHT22;24531;45.502;12.238;2023-06-05T10:24:43;22.90;99.90
38784;DHT22;24531;45.502;12.238;2023-06-05T10:40:00;23.60;99.90
38784;DHT22;24531;45.502;12.238;2023-06-05T10:42:27;23.70;99.90
38784;DHT22;24531;45.502;12.238;2023-06-05T10:44:53;23.80;99.90
38784;DHT22;24531;45.502;12.238;2023-06-05T10:52:45;24.00;99.90
38784;DHT22;24531;45.502;12.238;2023-06-05T10:55:11;23.90;99.90
38784;DHT22;24531;45.502;12.238;2023-06-05T11:00:30;23.70;99.90
38784;DHT22;24531;45.502;12.238;2023-06-05T11:02:57;23.70;99.90
38784;DHT22;24531;45.502;12.238;2023-06-05T11:05:23;23.70;99.90
38784;DHT22;24531;45.502;12.238;2023-06-05T11:08:15;23.70;99.90
38784;DHT22;24531;45.502;12.238;2023-06-05T11:11:05;23.70;99.90
38784;DHT22;24531;45.502;12.238;2023-06-05T11:13:53;23.80;99.90
38784;DHT22;24531;45.502;12.238;2023-06-05T11:16:32;23.90;99.90
38784;DHT22;24531;45.502;12.238;2023-06-05T11:22:07;24.00;99.90
38784;DHT22;24531;45.502;12.238;2023-06-05T11:24:34;23.90;99.90
38784;DHT22;24531;45.502;12.238;2023-06-05T11:27:01;23.90;99.90
38784;DHT22;24531;45.502;12.238;2023-06-05T11:29:28;23.80;99.90
38784;DHT22;24531;45.502;12.238;2023-06-05T11:31:55;23.80;99.90
38784;DHT22;24531;45.502;12.238;2023-06-05T11:34:20;23.90;99.90
38784;DHT22;24531;45.502;12.238;2023-06-05T11:36:47;23.90;99.90
38784;DHT22;24531;45.502;12.238;2023-06-05T11:39:13;23.90;99.90
38784;DHT22;24531;45.502;12.238;2023-06-05T11:41:47;24.00;99.90
38784;DHT22;24531;45.502;12.238;2023-06-05T11:44:14;24.10;99.90
38784;DHT22;24531;45.502;12.238;2023-06-05T11:46:41;24.20;99.90
38784;DHT22;24531;45.502;12.238;2023-06-05T11:49:26;24.30;99.90
38784;DHT22;24531;45.502;12.238;2023-06-05T11:51:53;24.40;99.90
38784;DHT22;24531;45.502;12.238;2023-06-05T11:54:30;24.40;99.90
38784;DHT22;24531;45.502;12.238;2023-06-05T11:57:03;24.40;99.90
38784;DHT22;24531;45.502;12.238;2023-06-05T11:59:37;24.30;99.90
38784;DHT22;24531;45.502;12.238;2023-06-05T12:02:04;24.20;99.90
38784;DHT22;24531;45.502;12.238;2023-06-05T12:04:34;24.20;99.90
38784;DHT22;24531;45.502;12.238;2023-06-05T12:07:00;24.40;99.90
38784;DHT22;24531;45.502;12.238;2023-06-05T12:09:27;24.40;99.90
38784;DHT22;24531;45.502;12.238;2023-06-05T12:12:07;24.50;99.90
38784;DHT22;24531;45.502;12.238;2023-06-05T12:14:34;24.50;99.90
38784;DHT22;24531;45.502;12.238;2023-06-05T12:17:07;24.50;99.90
38784;DHT22;24531;45.502;12.238;2023-06-05T12:19:34;24.50;99.90
38784;DHT22;24531;45.502;12.238;2023-06-05T12:22:04;24.60;99.90
38784;DHT22;24531;45.502;12.238;2023-06-05T12:24:32;24.70;99.90
38784;DHT22;24531;45.502;12.238;2023-06-05T12:27:00;25.00;99.90
38784;DHT22;24531;45.502;12.238;2023-06-05T12:29:27;25.20;99.90
38784;DHT22;24531;45.502;12.238;2023-06-05T12:32:19;25.20;99.90
38784;DHT22;24531;45.502;12.238;2023-06-05T12:34:47;25.10;99.90
38784;DHT22;24531;45.502;12.238;2023-06-05T12:37:22;25.00;99.90
38784;DHT22;24531;45.502;12.238;2023-06-05T12:39:48;25.00;99.90
38784;DHT22;24531;45.502;12.238;2023-06-05T12:42:14;24.90;99.90
38784;DHT22;24531;45.502;12.238;2023-06-05T12:44:39;25.00;99.90
38784;DHT22;24531;45.502;12.238;2023-06-05T12:47:05;25.20;99.90
38784;DHT22;24531;45.502;12.238;2023-06-05T12:49:32;25.20;99.90
38784;DHT22;24531;45.502;12.238;2023-06-05T12:51:58;25.20;99.90
38784;DHT22;24531;45.502;12.238;2023-06-05T12:54:23;25.20;99.90
38784;DHT22;24531;45.502;12.238;2023-06-05T12:56:49;25.20;99.90
38784;DHT22;24531;45.502;12.238;2023-06-05T12:59:15;25.10;99.90
38784;DHT22;24531;45.502;12.238;2023-06-05T13:01:40;25.00;99.90
38784;DHT22;24531;45.502;12.238;2023-06-05T13:04:06;25.10;99.90
38784;DHT22;24531;45.502;12.238;2023-06-05T13:06:32;25.00;99.90
38784;DHT22;24531;45.502;12.238;2023-06-05T13:09:00;25.00;99.90
38784;DHT22;24531;45.502;12.238;2023-06-05T13:11:26;24.90;99.90
38784;DHT22;24531;45.502;12.238;2023-06-05T13:13:52;25.00;99.90
38784;DHT22;24531;45.502;12.238;2023-06-05T13:16:17;25.00;99.90
38784;DHT22;24531;45.502;12.238;2023-06-05T13:18:43;24.90;99.90
38784;DHT22;24531;45.502;12.238;2023-06-05T13:21:08;24.90;99.90
38784;DHT22;24531;45.502;12.238;2023-06-05T13:23:34;24.80;99.90
38784;DHT22;24531;45.502;12.238;2023-06-05T13:26:00;24.80;99.90
38784;DHT22;24531;45.502;12.238;2023-06-05T13:28:26;24.80;99.90
38784;DHT22;24531;45.502;12.238;2023-06-05T13:30:52;24.80;99.90
38784;DHT22;24531;45.502;12.238;2023-06-05T13:33:19;24.70;99.90
38784;DHT22;24531;45.502;12.238;2023-06-05T13:35:45;24.80;99.90
38784;DHT22;24531;45.502;12.238;2023-06-05T13:38:10;25.00;99.90
38784;DHT22;24531;45.502;12.238;2023-06-05T13:40:36;25.30;99.90
38784;DHT22;24531;45.502;12.238;2023-06-05T13:43:02;25.30;99.90
38784;DHT22;24531;45.502;12.238;2023-06-05T13:45:27;25.30;99.90
38784;DHT22;24531;45.502;12.238;2023-06-05T13:47:53;25.30;99.90
38784;DHT22;24531;45.502;12.238;2023-06-05T13:50:19;25.20;99.90
38784;DHT22;24531;45.502;12.238;2023-06-05T13:52:48;25.10;99.90
38784;DHT22;24531;45.502;12.238;2023-06-05T13:55:13;25.00;99.90
38784;DHT22;24531;45.502;12.238;2023-06-05T13:57:39;25.00;99.90
38784;DHT22;24531;45.502;12.238;2023-06-05T14:00:06;25.00;99.90
38784;DHT22;24531;45.502;12.238;2023-06-05T14:02:32;25.00;99.90
38784;DHT22;24531;45.502;12.238;2023-06-05T14:04:58;25.10;99.90
38784;DHT22;24531;45.502;12.238;2023-06-05T14:07:24;25.20;99.90
38784;DHT22;24531;45.502;12.238;2023-06-05T14:09:50;25.20;99.90
38784;DHT22;24531;45.502;12.238;2023-06-05T14:12:15;25.30;99.90
38784;DHT22;24531;45.502;12.238;2023-06-05T14:14:43;25.20;99.90
38784;DHT22;24531;45.502;12.238;2023-06-05T14:17:08;25.20;99.90
38784;DHT22;24531;45.502;12.238;2023-06-05T14:19:34;25.30;99.90
38784;DHT22;24531;45.502;12.238;2023-06-05T14:21:59;25.30;99.90
38784;DHT22;24531;45.502;12.238;2023-06-05T14:24:25;25.30;99.90
38784;DHT22;24531;45.502;12.238;2023-06-05T14:26:53;25.40;99.90
38784;DHT22;24531;45.502;12.238;2023-06-05T14:29:20;25.40;99.90
38784;DHT22;24531;45.502;12.238;2023-06-05T14:31:45;25.40;99.90
38784;DHT22;24531;45.502;12.238;2023-06-05T14:34:11;25.40;99.90
38784;DHT22;24531;45.502;12.238;2023-06-05T14:36:36;25.50;99.90
38784;DHT22;24531;45.502;12.238;2023-06-05T14:39:02;25.40;99.90
38784;DHT22;24531;45.502;12.238;2023-06-05T14:41:29;25.40;99.90
38784;DHT22;24531;45.502;12.238;2023-06-05T14:43:56;25.30;99.90
38784;DHT22;24531;45.502;12.238;2023-06-05T14:46:21;25.20;99.90
38784;DHT22;24531;45.502;12.238;2023-06-05T14:48:47;25.10;99.90
38784;DHT22;24531;45.502;12.238;2023-06-05T14:51:12;25.00;99.90
38784;DHT22;24531;45.502;12.238;2023-06-05T14:53:38;25.00;99.90
38784;DHT22;24531;45.502;12.238;2023-06-05T14:56:04;24.90;99.90
38784;DHT22;24531;45.502;12.238;2023-06-05T14:58:30;24.90;99.90
38784;DHT22;24531;45.502;12.238;2023-06-05T15:00:56;24.90;99.90
38784;DHT22;24531;45.502;12.238;2023-06-05T15:03:22;24.90;99.90
38784;DHT22;24531;45.502;12.238;2023-06-05T15:05:47;24.90;99.90
38784;DHT22;24531;45.502;12.238;2023-06-05T15:08:13;24.90;99.90
38784;DHT22;24531;45.502;12.238;2023-06-05T15:10:39;24.90;99.90
38784;DHT22;24531;45.502;12.238;2023-06-05T15:13:04;24.90;99.90
38784;DHT22;24531;45.502;12.238;2023-06-05T15:15:30;24.90;99.90
38784;DHT22;24531;45.502;12.238;2023-06-05T15:17:56;24.90;99.90
38784;DHT22;24531;45.502;12.238;2023-06-05T15:20:22;24.90;99.90
38784;DHT22;24531;45.502;12.238;2023-06-05T15:22:48;24.90;99.90
38784;DHT22;24531;45.502;12.238;2023-06-05T15:25:14;25.00;99.90
38784;DHT22;24531;45.502;12.238;2023-06-05T15:27:39;25.00;99.90
38784;DHT22;24531;45.502;12.238;2023-06-05T15:30:06;25.00;99.90
38784;DHT22;24531;45.502;12.238;2023-06-05T15:32:32;25.00;99.90
38784;DHT22;24531;45.502;12.238;2023-06-05T15:34:58;25.00;99.90
38784;DHT22;24531;45.502;12.238;2023-06-05T15:37:24;25.00;99.90
38784;DHT22;24531;45.502;12.238;2023-06-05T15:39:50;25.00;99.90
38784;DHT22;24531;45.502;12.238;2023-06-05T15:42:35;24.90;99.90
38784;DHT22;24531;45.502;12.238;2023-06-05T15:45:08;24.90;99.90
38784;DHT22;24531;45.502;12.238;2023-06-05T15:47:34;25.10;99.90
38784;DHT22;24531;45.502;12.238;2023-06-05T15:50:01;25.00;99.90
38784;DHT22;24531;45.502;12.238;2023-06-05T15:52:27;25.00;99.90
38784;DHT22;24531;45.502;12.238;2023-06-05T15:54:56;24.90;99.90